createdAt,value
2023-02-17T00:02:06.994Z,1.08
2023-02-17T00:04:50.209Z,1.07
2023-02-17T00:07:34.134Z,0.96
2023-02-17T00:10:17.853Z,0.97
2023-02-17T00:13:01.491Z,1.00
2023-02-17T00:15:46.048Z,0.90
2023-02-17T00:18:29.217Z,0.92
2023-02-17T00:21:14.918Z,0.97
2023-02-17T00:23:59.575Z,1.05
2023-02-17T00:26:42.937Z,0.94
2023-02-17T00:29:27.290Z,0.96
2023-02-17T00:32:12.061Z,0.91
2023-02-17T00:34:57.024Z,0.87
2023-02-17T00:37:45.639Z,0.92
2023-02-17T00:40:32.887Z,0.92
2023-02-17T00:43:16.152Z,0.80
2023-02-17T00:45:59.461Z,0.79
2023-02-17T00:48:44.157Z,0.79
2023-02-17T00:51:27.446Z,0.80
2023-02-17T00:54:10.575Z,0.79
2023-02-17T00:56:53.793Z,0.75
2023-02-17T00:59:36.852Z,0.71
2023-02-17T01:02:20.066Z,0.70
2023-02-17T01:05:05.715Z,0.68
2023-02-17T01:07:49.224Z,0.64
2023-02-17T01:10:32.356Z,0.64
2023-02-17T01:13:17.551Z,0.69
2023-02-17T01:16:00.959Z,0.72
2023-02-17T01:18:45.704Z,0.74
2023-02-17T01:21:31.303Z,0.74
2023-02-17T01:24:17.450Z,0.74
2023-02-17T01:27:00.751Z,0.67
2023-02-17T01:29:46.655Z,0.63
2023-02-17T01:32:30.081Z,0.58
2023-02-17T01:35:13.423Z,0.42
2023-02-17T01:37:58.389Z,0.36
2023-02-17T01:40:49.076Z,0.24
2023-02-17T01:43:34.392Z,0.19
2023-02-17T01:46:17.508Z,0.22
2023-02-17T01:49:04.787Z,0.29
2023-02-17T01:51:53.894Z,0.36
2023-02-17T01:54:44.324Z,0.19
2023-02-17T01:57:32.468Z,0.24
2023-02-17T02:00:18.715Z,0.24
2023-02-17T02:03:03.637Z,0.30
2023-02-17T02:05:47.777Z,0.39
2023-02-17T02:08:39.856Z,0.41
2023-02-17T02:11:24.586Z,0.47
2023-02-17T02:14:10.567Z,0.43
2023-02-17T02:17:01.300Z,0.22
2023-02-17T02:20:16.047Z,0.43
2023-02-17T02:23:28.219Z,0.54
2023-02-17T02:26:50.093Z,0.55
2023-02-17T02:30:04.932Z,0.37
2023-02-17T02:33:03.738Z,0.42
2023-02-17T02:35:57.582Z,0.46
2023-02-17T02:38:44.836Z,0.45
2023-02-17T02:41:32.998Z,0.43
2023-02-17T02:44:19.282Z,0.43
2023-02-17T02:47:04.815Z,0.45
2023-02-17T02:49:50.606Z,0.37
2023-02-17T02:52:42.931Z,0.44
2023-02-17T02:55:36.918Z,0.49
2023-02-17T02:58:24.234Z,0.42
2023-02-17T03:01:20.134Z,0.37
2023-02-17T03:04:12.296Z,0.37
2023-02-17T03:07:04.439Z,0.34
2023-02-17T03:09:48.039Z,0.23
2023-02-17T03:12:32.359Z,0.29
2023-02-17T03:15:21.393Z,0.31
2023-02-17T03:18:05.004Z,0.32
2023-02-17T03:20:53.276Z,0.34
2023-02-17T03:23:39.647Z,0.33
2023-02-17T03:26:23.151Z,0.29
2023-02-17T03:29:06.872Z,0.36
2023-02-17T03:31:54.443Z,0.38
2023-02-17T03:34:38.436Z,0.35
2023-02-17T03:37:22.010Z,0.35
2023-02-17T03:40:09.344Z,0.30
2023-02-17T03:42:52.795Z,0.14
2023-02-17T03:45:38.458Z,0.27
2023-02-17T03:48:21.805Z,0.25
2023-02-17T03:51:12.452Z,-0.07
2023-02-17T03:53:55.576Z,0.05
2023-02-17T03:56:40.230Z,0.04
2023-02-17T03:59:23.860Z,0.14
2023-02-17T04:02:07.026Z,0.07
2023-02-17T04:04:50.653Z,0.17
2023-02-17T04:07:33.819Z,0.14
2023-02-17T04:10:20.178Z,0.18
2023-02-17T04:13:04.766Z,-0.01
2023-02-17T04:15:48.182Z,0.10
2023-02-17T04:18:32.560Z,-0.01
2023-02-17T04:21:15.747Z,0.08
2023-02-17T04:24:02.145Z,0.08
2023-02-17T04:26:45.378Z,0.10
2023-02-17T04:29:30.176Z,0.10
2023-02-17T04:32:13.308Z,-0.05
2023-02-17T04:34:56.560Z,-0.00
2023-02-17T04:37:39.894Z,-0.04
2023-02-17T04:40:23.983Z,0.05
2023-02-17T04:43:08.640Z,0.10
2023-02-17T04:45:53.686Z,0.07
2023-02-17T04:48:37.969Z,0.13
2023-02-17T04:51:21.169Z,0.09
2023-02-17T04:54:04.341Z,0.10
2023-02-17T04:56:47.516Z,0.10
2023-02-17T04:59:31.650Z,0.14
2023-02-17T05:02:16.707Z,0.17
2023-02-17T05:05:00.285Z,0.13
2023-02-17T05:07:43.698Z,0.19
2023-02-17T05:10:26.874Z,0.29
2023-02-17T05:13:10.420Z,0.18
2023-02-17T05:15:53.762Z,0.07
2023-02-17T05:18:38.715Z,0.04
2023-02-17T05:21:23.299Z,0.20
2023-02-17T05:24:07.147Z,0.18
2023-02-17T05:26:51.733Z,0.10
2023-02-17T05:29:35.150Z,0.13
2023-02-17T05:32:19.745Z,0.03
2023-02-17T05:35:04.668Z,0.09
2023-02-17T05:37:47.830Z,0.22
2023-02-17T05:40:31.355Z,0.24
2023-02-17T05:43:16.718Z,0.29
2023-02-17T05:46:03.632Z,0.46
2023-02-17T05:48:48.631Z,0.52
2023-02-17T05:51:33.590Z,0.77
2023-02-17T05:54:16.823Z,0.96
2023-02-17T05:57:00.681Z,1.00
2023-02-17T05:59:43.914Z,1.11
2023-02-17T06:02:27.414Z,1.31
2023-02-17T06:05:12.420Z,1.57
2023-02-17T06:07:57.418Z,1.73
2023-02-17T06:10:41.080Z,1.97
2023-02-17T06:13:24.293Z,2.13
2023-02-17T06:16:08.745Z,2.28
2023-02-17T06:18:52.062Z,2.37
2023-02-17T06:21:35.759Z,2.56
2023-02-17T06:24:22.669Z,2.72
2023-02-17T06:27:05.844Z,2.89
2023-02-17T06:29:50.154Z,3.02
2023-02-17T06:32:34.796Z,3.30
2023-02-17T06:35:18.683Z,3.82
2023-02-17T06:38:01.898Z,5.34
2023-02-17T06:40:46.835Z,7.75
2023-02-17T06:43:30.028Z,10.03
2023-02-17T06:46:13.561Z,11.14
2023-02-17T06:48:56.839Z,11.59
2023-02-17T06:51:40.064Z,13.81
2023-02-17T06:54:23.735Z,16.08
2023-02-17T06:57:08.604Z,17.57
2023-02-17T06:59:52.692Z,17.71
2023-02-17T07:02:38.482Z,16.91
2023-02-17T07:05:21.728Z,18.30
2023-02-17T07:08:05.237Z,20.18
2023-02-17T07:10:48.810Z,21.17
2023-02-17T07:13:33.449Z,22.73
2023-02-17T07:16:17.587Z,24.61
2023-02-17T07:19:02.528Z,26.10
2023-02-17T07:21:47.579Z,25.60
2023-02-17T07:24:31.173Z,27.48
2023-02-17T07:27:16.052Z,28.76
2023-02-17T07:30:00.743Z,28.81
2023-02-17T07:32:44.448Z,29.43
2023-02-17T07:35:27.844Z,29.78
2023-02-17T07:38:11.307Z,30.09
2023-02-17T07:40:54.808Z,30.11
2023-02-17T07:43:38.578Z,31.46
2023-02-17T07:46:24.633Z,34.24
2023-02-17T07:49:08.001Z,33.86
2023-02-17T07:51:52.616Z,33.13
2023-02-17T07:54:35.993Z,34.23
2023-02-17T07:57:21.162Z,34.48
2023-02-17T08:00:06.612Z,35.35
2023-02-17T08:02:51.840Z,36.63
2023-02-17T08:05:35.121Z,37.45
2023-02-17T08:08:37.193Z,38.46
2023-02-17T08:11:38.557Z,37.61
2023-02-17T08:14:22.894Z,38.16
2023-02-17T08:17:06.644Z,39.33
2023-02-17T08:19:51.212Z,40.70
2023-02-17T08:22:34.920Z,41.24
2023-02-17T08:25:19.136Z,39.87
2023-02-17T08:28:02.636Z,40.98
2023-02-17T08:30:48.742Z,40.53
2023-02-17T08:33:32.092Z,41.84
2023-02-17T08:36:16.764Z,39.86
2023-02-17T08:39:00.659Z,41.39
2023-02-17T08:41:44.751Z,43.00
2023-02-17T08:44:28.060Z,43.07
2023-02-17T08:47:11.700Z,43.47
2023-02-17T08:49:55.128Z,42.70
2023-02-17T08:52:42.252Z,43.52
2023-02-17T08:55:26.081Z,44.72
2023-02-17T08:58:09.639Z,45.42
2023-02-17T09:00:55.814Z,44.74
2023-02-17T09:03:42.752Z,43.62
2023-02-17T09:06:27.417Z,45.20
2023-02-17T09:09:14.424Z,45.81
2023-02-17T09:11:59.496Z,46.95
2023-02-17T09:14:42.806Z,45.89
2023-02-17T09:17:26.006Z,47.27
2023-02-17T09:20:23.885Z,44.77
2023-02-17T09:23:08.722Z,44.36
2023-02-17T09:26:10.727Z,45.96
2023-02-17T09:29:00.033Z,45.32
2023-02-17T09:31:45.729Z,45.38
2023-02-17T09:34:31.931Z,43.72
2023-02-17T09:37:15.222Z,45.79
2023-02-17T09:39:58.727Z,45.60
2023-02-17T09:42:43.349Z,44.08
2023-02-17T09:45:36.129Z,41.66
2023-02-17T09:48:21.997Z,39.80
2023-02-17T09:51:12.732Z,36.10
2023-02-17T09:54:06.932Z,30.87
2023-02-17T09:56:52.635Z,28.73
2023-02-17T09:59:46.618Z,26.96
2023-02-17T10:02:37.926Z,25.30
2023-02-17T10:05:30.299Z,23.91
2023-02-17T10:08:19.533Z,23.34
2023-02-17T10:11:07.510Z,25.49
2023-02-17T10:13:54.953Z,31.40
2023-02-17T10:16:48.985Z,34.41
2023-02-17T10:19:36.000Z,35.84
2023-02-17T10:22:21.939Z,35.51
2023-02-17T10:25:16.405Z,37.71
2023-02-17T10:28:09.169Z,41.51
2023-02-17T10:31:04.095Z,43.38
2023-02-17T10:34:05.617Z,44.08
2023-02-17T10:36:58.354Z,43.33
2023-02-17T10:39:49.777Z,45.12
2023-02-17T10:42:37.884Z,46.69
2023-02-17T10:45:31.848Z,46.94
2023-02-17T10:48:19.280Z,45.95
2023-02-17T10:51:05.003Z,46.01
2023-02-17T10:53:52.757Z,46.11
2023-02-17T10:56:44.275Z,46.61
2023-02-17T10:59:31.711Z,46.52
2023-02-17T11:02:23.175Z,47.43
2023-02-17T11:05:08.656Z,45.20
2023-02-17T11:08:03.003Z,46.15
2023-02-17T11:10:46.546Z,44.72
2023-02-17T11:13:36.078Z,47.56
2023-02-17T11:16:31.242Z,47.30
2023-02-17T11:19:26.099Z,48.45
2023-02-17T11:22:34.227Z,47.99
2023-02-17T11:25:26.481Z,44.80
2023-02-17T11:28:14.694Z,46.17
2023-02-17T11:31:00.366Z,45.55
2023-02-17T11:33:44.418Z,46.32
2023-02-17T11:36:30.212Z,46.26
2023-02-17T11:39:21.720Z,46.01
2023-02-17T11:42:18.042Z,47.01
2023-02-17T11:45:13.689Z,47.52
2023-02-17T11:48:12.989Z,47.61
2023-02-17T11:51:04.039Z,45.00
2023-02-17T11:53:58.501Z,42.55
2023-02-17T11:56:47.148Z,39.86
2023-02-17T12:00:02.658Z,32.42
2023-02-17T12:03:05.838Z,28.48
2023-02-17T12:06:02.264Z,26.42
2023-02-17T12:09:05.054Z,24.56
2023-02-17T12:11:59.411Z,23.07
2023-02-17T12:15:09.740Z,22.12
2023-02-17T12:18:07.845Z,20.66
2023-02-17T12:21:09.343Z,19.94
2023-02-17T12:24:14.848Z,18.80
2023-02-17T12:27:07.533Z,18.55
2023-02-17T12:30:06.077Z,18.31
2023-02-17T12:33:06.665Z,18.09
2023-02-17T12:35:53.235Z,17.86
2023-02-17T12:38:41.091Z,17.60
2023-02-17T12:41:29.592Z,17.42
2023-02-17T12:44:18.984Z,17.17
2023-02-17T12:47:11.321Z,16.80
2023-02-17T12:50:02.195Z,16.66
2023-02-17T12:52:50.968Z,16.46
2023-02-17T12:55:47.011Z,16.54
2023-02-17T12:58:32.947Z,16.60
2023-02-17T13:01:20.071Z,16.20
2023-02-17T13:04:05.344Z,16.04
2023-02-17T13:06:56.788Z,16.16
2023-02-17T13:09:44.685Z,16.30
2023-02-17T13:12:43.405Z,16.21
2023-02-17T13:15:30.011Z,16.19
2023-02-17T13:18:16.050Z,16.09
2023-02-17T13:21:01.878Z,16.17
2023-02-17T13:24:02.431Z,16.16
2023-02-17T13:26:46.089Z,16.18
2023-02-17T13:29:37.157Z,16.21
2023-02-17T13:32:29.606Z,16.41
2023-02-17T13:35:34.685Z,16.46
2023-02-17T13:38:28.152Z,16.15
2023-02-17T13:41:15.879Z,16.02
2023-02-17T13:43:59.194Z,16.13
2023-02-17T13:46:42.763Z,16.08
2023-02-17T13:49:28.295Z,16.20
2023-02-17T13:52:18.629Z,15.89
2023-02-17T13:55:04.627Z,15.97
2023-02-17T13:57:54.530Z,16.17
2023-02-17T14:00:43.805Z,16.02
2023-02-17T14:03:42.620Z,16.08
2023-02-17T14:06:29.631Z,15.93
2023-02-17T14:09:23.543Z,15.92
2023-02-17T14:12:12.893Z,15.65
2023-02-17T14:14:57.397Z,15.50
2023-02-17T14:17:42.089Z,15.18
2023-02-17T14:20:44.635Z,15.24
2023-02-17T14:23:27.881Z,15.10
2023-02-17T14:26:14.172Z,14.92
2023-02-17T14:28:58.790Z,14.83
2023-02-17T14:31:48.435Z,14.66
2023-02-17T14:34:34.097Z,14.47
2023-02-17T14:37:24.698Z,14.22
2023-02-17T14:40:17.505Z,14.08
2023-02-17T14:43:00.908Z,14.10
2023-02-17T14:45:45.169Z,14.02
2023-02-17T14:48:29.853Z,13.76
2023-02-17T14:51:14.201Z,13.77
2023-02-17T14:53:57.438Z,13.79
2023-02-17T14:56:48.685Z,13.62
2023-02-17T14:59:32.269Z,13.61
2023-02-17T15:02:24.709Z,13.43
2023-02-17T15:05:09.846Z,13.34
2023-02-17T15:07:53.410Z,13.31
2023-02-17T15:10:38.229Z,13.29
2023-02-17T15:13:23.513Z,13.28
2023-02-17T15:16:08.360Z,13.12
2023-02-17T15:18:52.309Z,12.93
2023-02-17T15:21:39.415Z,12.79
2023-02-17T15:24:29.250Z,12.73
2023-02-17T15:27:18.126Z,12.67
2023-02-17T15:30:04.297Z,12.54
2023-02-17T15:32:48.476Z,12.46
2023-02-17T15:35:32.103Z,12.31
2023-02-17T15:38:17.515Z,12.31
2023-02-17T15:41:00.710Z,12.26
2023-02-17T15:43:47.991Z,12.20
2023-02-17T15:46:33.207Z,12.11
2023-02-17T15:49:16.847Z,11.97
2023-02-17T15:52:00.104Z,11.86
2023-02-17T15:54:49.539Z,11.78
2023-02-17T15:57:34.036Z,11.70
2023-02-17T16:00:24.651Z,11.63
2023-02-17T16:03:07.898Z,11.54
2023-02-17T16:05:51.161Z,11.44
2023-02-17T16:08:34.369Z,11.39
2023-02-17T16:11:20.811Z,11.28
2023-02-17T16:14:04.216Z,11.28
2023-02-17T16:16:47.436Z,11.21
2023-02-17T16:19:32.309Z,11.18
2023-02-17T16:22:15.763Z,11.11
2023-02-17T16:24:59.239Z,11.04
2023-02-17T16:27:45.296Z,10.95
2023-02-17T16:30:32.513Z,10.81
2023-02-17T16:33:15.941Z,10.72
2023-02-17T16:35:59.187Z,10.68
2023-02-17T16:38:45.372Z,10.56
2023-02-17T16:41:28.934Z,10.48
2023-02-17T16:44:15.681Z,10.37
2023-02-17T16:47:01.127Z,10.32
2023-02-17T16:49:50.625Z,10.26
2023-02-17T16:52:33.838Z,10.26
2023-02-17T16:58:16.494Z,10.01
2023-02-17T17:01:01.211Z,9.94
2023-02-17T17:03:44.651Z,9.91
2023-02-17T17:06:33.317Z,9.88
2023-02-17T17:09:18.990Z,9.82
2023-02-17T17:12:02.201Z,9.79
2023-02-17T17:14:45.972Z,9.74
2023-02-17T17:17:31.073Z,9.67
2023-02-17T17:20:18.570Z,9.62
2023-02-17T17:23:08.216Z,9.56
2023-02-17T17:25:51.794Z,9.55
2023-02-17T17:28:39.338Z,9.51
2023-02-17T17:31:23.567Z,9.57
2023-02-17T17:34:11.658Z,9.47
2023-02-17T17:36:55.399Z,9.35
2023-02-17T17:39:42.039Z,9.32
2023-02-17T17:42:25.217Z,9.20
2023-02-17T17:45:08.920Z,9.12
2023-02-17T17:47:52.662Z,9.01
2023-02-17T17:50:37.859Z,8.84
2023-02-17T17:53:22.406Z,8.60
2023-02-17T17:56:11.454Z,8.58
2023-02-17T17:59:11.595Z,8.38
2023-02-17T18:01:54.733Z,8.24
2023-02-17T18:04:38.147Z,8.10
2023-02-17T18:07:25.020Z,7.97
2023-02-17T18:10:12.765Z,7.92
2023-02-17T18:12:56.236Z,7.89
2023-02-17T18:15:42.515Z,7.88
2023-02-17T18:18:25.809Z,7.64
2023-02-17T18:21:09.001Z,7.50
2023-02-17T18:23:54.007Z,7.50
2023-02-17T18:26:37.260Z,7.48
2023-02-17T18:29:21.142Z,7.44
2023-02-17T18:32:06.731Z,7.35
2023-02-17T18:34:50.346Z,7.30
2023-02-17T18:37:34.718Z,7.17
2023-02-17T18:40:21.373Z,7.09
2023-02-17T18:43:04.407Z,7.10
2023-02-17T18:45:49.086Z,7.15
2023-02-17T18:48:32.201Z,7.06
2023-02-17T18:51:19.433Z,6.97
2023-02-17T18:54:05.599Z,6.94
2023-02-17T18:56:50.079Z,6.86
2023-02-17T18:59:33.813Z,6.88
2023-02-17T19:02:17.506Z,6.83
2023-02-17T19:05:00.653Z,6.76
2023-02-17T19:07:44.029Z,6.73
2023-02-17T19:10:28.679Z,6.69
2023-02-17T19:13:13.505Z,6.75
2023-02-17T19:16:07.485Z,6.70
2023-02-17T19:18:52.441Z,6.73
2023-02-17T19:21:38.300Z,6.83
2023-02-17T19:24:21.511Z,6.79
2023-02-17T19:27:05.348Z,6.82
2023-02-17T19:29:51.138Z,6.80
2023-02-17T19:32:42.914Z,6.74
2023-02-17T19:35:26.090Z,6.55
2023-02-17T19:38:09.697Z,6.52
2023-02-17T19:40:52.812Z,6.51
2023-02-17T19:43:36.204Z,6.43
2023-02-17T19:46:22.913Z,6.41
2023-02-17T19:49:06.524Z,6.35
2023-02-17T19:51:50.205Z,6.23
2023-02-17T19:54:33.507Z,6.25
2023-02-17T19:57:18.537Z,6.12
2023-02-17T20:00:01.816Z,6.08
2023-02-17T20:02:46.502Z,5.98
2023-02-17T20:05:31.349Z,5.90
2023-02-17T20:08:17.621Z,5.88
2023-02-17T20:11:01.341Z,5.82
2023-02-17T20:13:46.627Z,5.80
2023-02-17T20:16:32.407Z,5.70
2023-02-17T20:19:17.633Z,5.63
2023-02-17T20:22:01.238Z,5.46
2023-02-17T20:24:45.724Z,5.40
2023-02-17T20:27:29.329Z,5.36
2023-02-17T20:30:13.452Z,5.42
2023-02-17T20:32:56.617Z,5.37
2023-02-17T20:35:41.472Z,5.32
2023-02-17T20:38:25.520Z,5.36
2023-02-17T20:41:10.485Z,5.22
2023-02-17T20:43:54.218Z,5.25
2023-02-17T20:46:37.944Z,5.24
2023-02-17T20:49:22.248Z,5.20
2023-02-17T20:52:07.102Z,5.21
2023-02-17T20:54:50.272Z,5.21
2023-02-17T20:57:33.642Z,5.20
2023-02-17T21:00:20.702Z,5.17
2023-02-17T21:03:04.217Z,5.19
2023-02-17T21:05:47.993Z,5.17
2023-02-17T21:08:32.734Z,5.18
2023-02-17T21:11:17.893Z,5.15
2023-02-17T21:14:01.654Z,5.21
2023-02-17T21:16:48.641Z,5.22
2023-02-17T21:19:34.002Z,5.18
2023-02-17T21:22:19.612Z,4.98
2023-02-17T21:25:05.546Z,4.84
2023-02-17T21:27:48.718Z,4.82
2023-02-17T21:30:33.601Z,4.83
2023-02-17T21:33:16.721Z,4.72
2023-02-17T21:36:00.105Z,4.62
2023-02-17T21:38:45.083Z,4.66
2023-02-17T21:41:31.948Z,4.60
2023-02-17T21:44:33.131Z,4.49
2023-02-17T21:47:16.436Z,4.58
2023-02-17T21:49:59.842Z,4.52
2023-02-17T21:52:42.921Z,4.53
2023-02-17T21:55:26.892Z,4.53
2023-02-17T21:58:11.653Z,4.54
2023-02-17T22:00:54.812Z,4.47
2023-02-17T22:03:37.989Z,4.33
2023-02-17T22:06:22.868Z,4.28
2023-02-17T22:09:09.587Z,4.27
2023-02-17T22:11:52.643Z,4.28
2023-02-17T22:14:39.606Z,4.25
2023-02-17T22:17:22.714Z,4.28
2023-02-17T22:20:06.975Z,4.31
2023-02-17T22:22:50.112Z,4.24
2023-02-17T22:25:33.255Z,4.20
2023-02-17T22:28:17.075Z,4.18
2023-02-17T22:31:01.728Z,4.09
2023-02-17T22:33:45.844Z,4.10
2023-02-17T22:36:28.957Z,4.07
2023-02-17T22:39:12.611Z,4.05
2023-02-17T22:41:55.753Z,3.93
2023-02-17T22:44:39.083Z,3.91
2023-02-17T22:47:23.779Z,3.89
2023-02-17T22:50:07.680Z,3.92
2023-02-17T22:52:50.659Z,3.86
2023-02-17T22:55:33.777Z,3.80
2023-02-17T22:58:17.102Z,3.85
2023-02-17T23:01:04.534Z,3.77
2023-02-17T23:03:52.907Z,3.79
2023-02-17T23:06:38.399Z,3.82
2023-02-17T23:09:21.563Z,3.78
2023-02-17T23:12:05.026Z,3.80
2023-02-17T23:14:50.182Z,3.67
2023-02-17T23:17:53.299Z,3.74
2023-02-17T23:20:45.000Z,3.69
2023-02-17T23:23:32.295Z,3.60
2023-02-17T23:26:15.824Z,3.53
2023-02-17T23:28:59.617Z,3.41
2023-02-17T23:31:42.775Z,3.39
2023-02-17T23:34:26.369Z,3.39
2023-02-17T23:37:10.857Z,3.31
2023-02-17T23:39:53.894Z,3.27
2023-02-17T23:42:38.419Z,3.28
2023-02-17T23:45:22.332Z,3.23
2023-02-17T23:48:06.033Z,3.16
2023-02-17T23:50:56.849Z,3.09
2023-02-17T23:53:41.375Z,3.04
2023-02-17T23:56:27.058Z,2.97
2023-02-17T23:59:10.142Z,2.95
